Pattersonville, Pennsylvania
Current Conditions -  °F | °C
As of 6:15 PM on Wednesday 22 Oct 2014 (Local Time) from KHZL Reporting Station
Drizzle Drizzle  
Wind Chill: 42°   Ceiling: 500
Heat Index: 46°   Visibility: 4mi
Dew Point: 46°   Wind: 9mph
Humidity: 100%   Direction: 320°NW
Pressure: 29.97"   Gusts: 21mph
Location:  40.8516°N, 76.2497°W
Report Text: KHZL 222215Z AUTO 32008G18KT 4SM DZ OVC005 08/08 A2997 RMK AO2
Loading
Personal Weather Stations






























Interactive Weather Map
Tropical Storm Tracking
New forecast layout! Learn more

10-Day Weather Forecast

Advertisements
Track Severe Weather on mobile